Alexander Maersk — OZRC2 — position and weather

sailwx.info

Track history (hours):
 
Tides and Currents Weather Stations Pressure Air Temp Water Temp Dewpoint Dewpoint Depression Visibility Wind Speed Wind Dir Waves Ship Positions

Alexander Maersk

Last reported at 2017-May-25 03:00 UTC. Time now 2017-May-25 03:09 UTC.
Position N 35°51' E 014°44'.

Length 155 m; draft 9.1 m.

Type: Cargo ship. MMSI: 219470000.

Date/timePositionNaut miles runAvg speedWind from/ knotsBaromVisibWave heightAir tempDewpointWater temp
2017-May-25 03:00N 35°51' E 014°44'0 0.0
2017-May-25 02:30N 35°51' E 014°44'0 0.0
2017-May-25 02:00N 35°51' E 014°44'0 0.0
2017-May-25 01:30N 35°51' E 014°44'0 0.0
2017-May-25 00:57N 35°51' E 014°44'0 0.0
2017-May-25 00:30N 35°51' E 014°44'0 0.0
2017-May-24 23:54N 35°51' E 014°44'0 0.0
2017-May-24 23:30N 35°51' E 014°44'0 0.0
2017-May-24 23:00N 35°51' E 014°44'0 0.0
2017-May-24 22:30N 35°51' E 014°44'0 0.1
2017-May-24 22:00N 35°51' E 014°44'0 0.0
2017-May-24 21:30N 35°51' E 014°44'0 0.0
2017-May-24 20:48N 35°51' E 014°44'0 0.1
2017-May-24 20:30N 35°51' E 014°44'0 0.0
2017-May-24 20:00N 35°51' E 014°44'0 0.1
2017-May-24 19:24N 35°51' E 014°43'0 0.0
2017-May-24 19:00N 35°51' E 014°43'0 0.1
2017-May-24 18:27N 35°51' E 014°43'0 0.0
2017-May-24 18:00N 35°51' E 014°43'0 0.0
2017-May-24 17:27N 35°51' E 014°43'0 0.0
2017-May-24 17:00N 35°51' E 014°43'0 0.1
2017-May-24 16:27N 35°51' E 014°43'0 0.1
2017-May-24 16:00N 35°51' E 014°43'0 0.1
2017-May-24 15:30N 35°51' E 014°44'0 0.0
2017-May-24 15:00N 35°51' E 014°43'0 0.0
2017-May-24 14:30N 35°51' E 014°43'0 0.0
2017-May-24 13:30N 35°51' E 014°44'0 0.0
2017-May-24 13:00N 35°51' E 014°44'0 0.0
2017-May-24 12:30N 35°51' E 014°44'0 0.0
2017-May-24 12:00N 35°51' E 014°44'0 0.0
2017-May-24 11:30N 35°51' E 014°44'0 0.0
2017-May-24 11:00N 35°51' E 014°44'0 0.0
2017-May-24 10:30N 35°51' E 014°44'0 0.0
2017-May-24 10:00N 35°51' E 014°44'0 0.0
2017-May-24 09:30N 35°51' E 014°44'0 0.0
2017-May-24 09:00N 35°51' E 014°44'0 0.1
2017-May-24 08:30N 35°51' E 014°44'0 0.0
2017-May-24 08:00N 35°51' E 014°44'0 0.0
2017-May-24 07:21N 35°51' E 014°44'0 0.0
2017-May-24 06:54N 35°51' E 014°44'0 0.0
2017-May-24 06:27N 35°51' E 014°44'0 0.0
2017-May-24 06:00N 35°51' E 014°44'0 0.0
2017-May-24 05:30N 35°51' E 014°44'0 0.0
2017-May-24 05:00N 35°51' E 014°44'0 0.0
2017-May-24 04:30N 35°51' E 014°44'0 0.0
2017-May-24 04:00N 35°51' E 014°44'0 0.0
2017-May-24 03:30N 35°51' E 014°44'0 0.1
2017-May-24 02:57N 35°51' E 014°44'0 0.0
2017-May-24 02:30N 35°51' E 014°44'0 0.1
2017-May-24 02:00N 35°51' E 014°43'0 0.0
2017-May-23 21:09N 35°51' E 014°43'0 0.1
2017-May-23 21:00N 35°51' E 014°43'0 0.0
2017-May-23 20:30N 35°51' E 014°43'0 0.0
2017-May-23 20:00N 35°51' E 014°43'0 0.1
2017-May-23 19:30N 35°51' E 014°43'0 0.0
2017-May-23 19:00N 35°51' E 014°43'0 0.0
2017-May-23 18:30N 35°51' E 014°43'0 0.0
2017-May-23 18:00N 35°51' E 014°43'0 0.0
2017-May-23 17:30N 35°51' E 014°43'0 0.1
2017-May-23 16:57N 35°51' E 014°44'0 0.1
2017-May-23 16:30N 35°51' E 014°44'0 0.1
2017-May-23 16:00N 35°51' E 014°44'0 0.6
2017-May-23 15:29N 35°50' E 014°44'3 7.0
2017-May-23 15:00N 35°48' E 014°41'4 8.4
2017-May-23 14:31N 35°46' E 014°37'9 8.4
2017-May-23 13:24N 35°41' E 014°27'3 8.7
2017-May-23 13:00N 35°40' E 014°23'4 8.9
2017-May-23 12:30N 35°38' E 014°18'5 9.1
2017-May-23 11:59N 35°35' E 014°13'4 9.1
2017-May-23 11:30N 35°33' E 014°08'4 8.8
2017-May-23 11:00N 35°31' E 014°04'4 8.7
2017-May-23 10:30N 35°29' E 013°59'4 8.6
2017-May-23 10:00N 35°27' E 013°54'4 8.4
2017-May-23 09:30N 35°25' E 013°50'4 8.4
2017-May-23 09:00N 35°23' E 013°45'4 8.5
2017-May-23 08:30N 35°22' E 013°40'4 8.5
2017-May-23 08:00N 35°20' E 013°36'4 8.5
2017-May-23 07:30N 35°18' E 013°31'4 8.5
2017-May-23 07:00N 35°16' E 013°26'4 8.5
2017-May-23 06:30N 35°14' E 013°22'4 8.5
2017-May-23 06:00N 35°12' E 013°17'4 8.6
2017-May-23 05:30N 35°09' E 013°13'4 8.4
2017-May-23 05:00N 35°07' E 013°09'4 8.4
2017-May-23 04:30N 35°05' E 013°04'4 8.3
2017-May-23 04:01N 35°03' E 012°60'10 7.8
2017-May-23 02:45N 35°01' E 012°48'2 7.9
2017-May-23 02:29N 35°00' E 012°46'11 8.0
2017-May-23 01:06N 34°55' E 012°34'1 8.4
2017-May-23 00:57N 34°55' E 012°32'4 8.3
2017-May-23 00:30N 34°54' E 012°28'4 8.3
2017-May-23 00:00N 34°52' E 012°23'4 8.3
2017-May-22 23:30N 34°50' E 012°19'4 8.2
2017-May-22 23:00N 34°49' E 012°14'4 8.2
2017-May-22 22:30N 34°46' E 012°10'4 8.1
2017-May-22 22:00N 34°44' E 012°06'4 8.0
2017-May-22 21:30N 34°41' E 012°03'4 7.9
2017-May-22 21:00N 34°39' E 011°58'5 7.9
2017-May-22 20:22N 34°38' E 011°52'13 8.0
2017-May-22 18:47N 34°32' E 011°39'20 7.7
2017-May-22 16:13N 34°27' E 011°16'2 8.6
2017-May-22 16:00N 34°26' E 011°14'  
2017-May-16 13:28N 34°40' E 010°50'1 1.0
2017-May-16 12:28N 34°40' E 010°50'48 6.6
2017-May-16 05:16N 34°05' E 011°29'3 8.6
2017-May-16 04:54N 34°04' E 011°33'3 8.7
2017-May-16 04:30N 34°04' E 011°37'4 8.8
2017-May-16 04:00N 34°04' E 011°43'52 8.7
2017-May-15 22:03N 34°01' E 012°45'1 9.0
2017-May-15 21:56N 34°01' E 012°47'4 9.0
2017-May-15 21:30N 33°59' E 012°50'11 9.0
2017-May-15 20:20N 33°53' E 013°01'4 9.0
2017-May-15 19:52N 33°51' E 013°06'83 8.4
2017-May-15 10:01N 32°50' E 014°13'314.7
2017-May-15 09:48N 32°47' E 014°15'  
Track history (hours):
 
Tides and Currents Weather Stations Pressure Air Temp Water Temp Dewpoint Dewpoint Depression Visibility Wind Speed Wind Dir Waves Ship Positions

Alexander Maersk

Last reported at 2017-May-25 03:00 UTC. Time now 2017-May-25 03:09 UTC.
Position N 35°51' E 014°44'.

Length 155 m; draft 9.1 m.

Type: Cargo ship. MMSI: 219470000.

Date/timePositionNaut miles runAvg speedWind from/ knotsBaromVisibWave heightAir tempDewpointWater temp
2017-May-25 03:00N 35°51' E 014°44'0 0.0
2017-May-25 02:30N 35°51' E 014°44'0 0.0
2017-May-25 02:00N 35°51' E 014°44'0 0.0
2017-May-25 01:30N 35°51' E 014°44'0 0.0
2017-May-25 00:57N 35°51' E 014°44'0 0.0
2017-May-25 00:30N 35°51' E 014°44'0 0.0
2017-May-24 23:54N 35°51' E 014°44'0 0.0
2017-May-24 23:30N 35°51' E 014°44'0 0.0
2017-May-24 23:00N 35°51' E 014°44'0 0.0
2017-May-24 22:30N 35°51' E 014°44'0 0.1
2017-May-24 22:00N 35°51' E 014°44'0 0.0
2017-May-24 21:30N 35°51' E 014°44'0 0.0
2017-May-24 20:48N 35°51' E 014°44'0 0.1
2017-May-24 20:30N 35°51' E 014°44'0 0.0
2017-May-24 20:00N 35°51' E 014°44'0 0.1
2017-May-24 19:24N 35°51' E 014°43'0 0.0
2017-May-24 19:00N 35°51' E 014°43'0 0.1
2017-May-24 18:27N 35°51' E 014°43'0 0.0
2017-May-24 18:00N 35°51' E 014°43'0 0.0
2017-May-24 17:27N 35°51' E 014°43'0 0.0
2017-May-24 17:00N 35°51' E 014°43'0 0.1
2017-May-24 16:27N 35°51' E 014°43'0 0.1
2017-May-24 16:00N 35°51' E 014°43'0 0.1
2017-May-24 15:30N 35°51' E 014°44'0 0.0
2017-May-24 15:00N 35°51' E 014°43'0 0.0
2017-May-24 14:30N 35°51' E 014°43'0 0.0
2017-May-24 13:30N 35°51' E 014°44'0 0.0
2017-May-24 13:00N 35°51' E 014°44'0 0.0
2017-May-24 12:30N 35°51' E 014°44'0 0.0
2017-May-24 12:00N 35°51' E 014°44'0 0.0
2017-May-24 11:30N 35°51' E 014°44'0 0.0
2017-May-24 11:00N 35°51' E 014°44'0 0.0
2017-May-24 10:30N 35°51' E 014°44'0 0.0
2017-May-24 10:00N 35°51' E 014°44'0 0.0
2017-May-24 09:30N 35°51' E 014°44'0 0.0
2017-May-24 09:00N 35°51' E 014°44'0 0.1
2017-May-24 08:30N 35°51' E 014°44'0 0.0
2017-May-24 08:00N 35°51' E 014°44'0 0.0
2017-May-24 07:21N 35°51' E 014°44'0 0.0
2017-May-24 06:54N 35°51' E 014°44'0 0.0
2017-May-24 06:27N 35°51' E 014°44'0 0.0
2017-May-24 06:00N 35°51' E 014°44'0 0.0
2017-May-24 05:30N 35°51' E 014°44'0 0.0
2017-May-24 05:00N 35°51' E 014°44'0 0.0
2017-May-24 04:30N 35°51' E 014°44'0 0.0
2017-May-24 04:00N 35°51' E 014°44'0 0.0
2017-May-24 03:30N 35°51' E 014°44'0 0.1
2017-May-24 02:57N 35°51' E 014°44'0 0.0
2017-May-24 02:30N 35°51' E 014°44'0 0.1
2017-May-24 02:00N 35°51' E 014°43'0 0.0
2017-May-23 21:09N 35°51' E 014°43'0 0.1
2017-May-23 21:00N 35°51' E 014°43'0 0.0
2017-May-23 20:30N 35°51' E 014°43'0 0.0
2017-May-23 20:00N 35°51' E 014°43'0 0.1
2017-May-23 19:30N 35°51' E 014°43'0 0.0
2017-May-23 19:00N 35°51' E 014°43'0 0.0
2017-May-23 18:30N 35°51' E 014°43'0 0.0
2017-May-23 18:00N 35°51' E 014°43'0 0.0
2017-May-23 17:30N 35°51' E 014°43'0 0.1
2017-May-23 16:57N 35°51' E 014°44'0 0.1
2017-May-23 16:30N 35°51' E 014°44'0 0.1
2017-May-23 16:00N 35°51' E 014°44'0 0.6
2017-May-23 15:29N 35°50' E 014°44'3 7.0
2017-May-23 15:00N 35°48' E 014°41'4 8.4
2017-May-23 14:31N 35°46' E 014°37'9 8.4
2017-May-23 13:24N 35°41' E 014°27'3 8.7
2017-May-23 13:00N 35°40' E 014°23'4 8.9
2017-May-23 12:30N 35°38' E 014°18'5 9.1
2017-May-23 11:59N 35°35' E 014°13'4 9.1
2017-May-23 11:30N 35°33' E 014°08'4 8.8
2017-May-23 11:00N 35°31' E 014°04'4 8.7
2017-May-23 10:30N 35°29' E 013°59'4 8.6
2017-May-23 10:00N 35°27' E 013°54'4 8.4
2017-May-23 09:30N 35°25' E 013°50'4 8.4
2017-May-23 09:00N 35°23' E 013°45'4 8.5
2017-May-23 08:30N 35°22' E 013°40'4 8.5
2017-May-23 08:00N 35°20' E 013°36'4 8.5
2017-May-23 07:30N 35°18' E 013°31'4 8.5
2017-May-23 07:00N 35°16' E 013°26'4 8.5
2017-May-23 06:30N 35°14' E 013°22'4 8.5
2017-May-23 06:00N 35°12' E 013°17'4 8.6
2017-May-23 05:30N 35°09' E 013°13'4 8.4
2017-May-23 05:00N 35°07' E 013°09'4 8.4
2017-May-23 04:30N 35°05' E 013°04'4 8.3
2017-May-23 04:01N 35°03' E 012°60'10 7.8
2017-May-23 02:45N 35°01' E 012°48'2 7.9
2017-May-23 02:29N 35°00' E 012°46'11 8.0
2017-May-23 01:06N 34°55' E 012°34'1 8.4
2017-May-23 00:57N 34°55' E 012°32'4 8.3
2017-May-23 00:30N 34°54' E 012°28'4 8.3
2017-May-23 00:00N 34°52' E 012°23'4 8.3
2017-May-22 23:30N 34°50' E 012°19'4 8.2
2017-May-22 23:00N 34°49' E 012°14'4 8.2
2017-May-22 22:30N 34°46' E 012°10'4 8.1
2017-May-22 22:00N 34°44' E 012°06'4 8.0
2017-May-22 21:30N 34°41' E 012°03'4 7.9
2017-May-22 21:00N 34°39' E 011°58'5 7.9
2017-May-22 20:22N 34°38' E 011°52'13 8.0
2017-May-22 18:47N 34°32' E 011°39'20 7.7
2017-May-22 16:13N 34°27' E 011°16'2 8.6
2017-May-22 16:00N 34°26' E 011°14'  
2017-May-16 13:28N 34°40' E 010°50'1 1.0
2017-May-16 12:28N 34°40' E 010°50'48 6.6
2017-May-16 05:16N 34°05' E 011°29'3 8.6
2017-May-16 04:54N 34°04' E 011°33'3 8.7
2017-May-16 04:30N 34°04' E 011°37'4 8.8
2017-May-16 04:00N 34°04' E 011°43'52 8.7
2017-May-15 22:03N 34°01' E 012°45'1 9.0
2017-May-15 21:56N 34°01' E 012°47'4 9.0
2017-May-15 21:30N 33°59' E 012°50'11 9.0
2017-May-15 20:20N 33°53' E 013°01'4 9.0
2017-May-15 19:52N 33°51' E 013°06'83 8.4
2017-May-15 10:01N 32°50' E 014°13'314.7
2017-May-15 09:48N 32°47' E 014°15'  

Dump ship's entire track history